createdAt,value
2022-10-11T00:00:46.469Z,98023.99
2022-10-11T00:03:31.722Z,98025.20
2022-10-11T00:06:00.055Z,98022.90
2022-10-11T00:08:28.022Z,98018.76
2022-10-11T00:10:59.202Z,98016.49
2022-10-11T00:13:27.758Z,98017.58
2022-10-11T00:15:56.605Z,98016.01
2022-10-11T00:18:25.460Z,98012.68
2022-10-11T00:21:08.381Z,98014.20
2022-10-11T00:23:37.163Z,98015.05
2022-10-11T00:26:08.045Z,98011.23
2022-10-11T00:28:37.270Z,98010.28
2022-10-11T00:31:14.869Z,98009.61
2022-10-11T00:33:42.993Z,98007.88
2022-10-11T00:36:14.706Z,98008.06
2022-10-11T00:38:44.055Z,98008.97
2022-10-11T00:41:12.280Z,98006.35
2022-10-11T00:43:40.248Z,98002.77
2022-10-11T00:46:30.014Z,98000.66
2022-10-11T00:49:07.400Z,98002.70
2022-10-11T00:51:41.704Z,97997.86
2022-10-11T00:54:15.160Z,98000.92
2022-10-11T00:56:45.850Z,97999.05
2022-10-11T00:59:19.888Z,97994.41
2022-10-11T01:01:48.162Z,97993.85
2022-10-11T01:04:16.310Z,97996.19
2022-10-11T01:06:45.205Z,97994.66
2022-10-11T01:09:14.607Z,97992.10
2022-10-11T01:11:44.517Z,97988.88
2022-10-11T01:14:21.807Z,97989.19
2022-10-11T01:17:08.442Z,97986.67
2022-10-11T01:20:22.130Z,97977.77
2022-10-11T01:23:11.119Z,97977.63
2022-10-11T01:26:04.824Z,97978.27
2022-10-11T01:29:10.337Z,97978.48
2022-10-11T01:31:49.384Z,97978.83
2022-10-11T01:34:40.194Z,97979.11
2022-10-11T01:37:19.328Z,97976.58
2022-10-11T01:39:59.057Z,97979.12
2022-10-11T01:42:28.869Z,97981.02
2022-10-11T01:44:58.843Z,97981.91
2022-10-11T01:47:27.121Z,97979.74
2022-10-11T01:50:01.053Z,97975.39
2022-10-11T01:52:34.149Z,97975.58
2022-10-11T01:55:13.803Z,97976.05
2022-10-11T01:58:00.103Z,97977.36
2022-10-11T02:00:40.250Z,97977.02
2022-10-11T02:03:34.874Z,97976.25
2022-10-11T02:06:29.504Z,97978.05
2022-10-11T02:09:28.777Z,97976.52
2022-10-11T02:12:10.287Z,97973.75
2022-10-11T02:14:50.294Z,97977.56
2022-10-11T02:17:22.636Z,97975.34
2022-10-11T02:19:54.618Z,97972.94
2022-10-11T02:22:26.485Z,97972.20
2022-10-11T02:24:59.077Z,97966.59
2022-10-11T02:27:31.430Z,97965.64
2022-10-11T02:30:02.701Z,97965.08
2022-10-11T02:32:32.319Z,97963.60
2022-10-11T02:35:02.506Z,97965.32
2022-10-11T02:37:53.518Z,97960.70
2022-10-11T02:40:27.716Z,97954.79
2022-10-11T02:43:11.061Z,97952.60
2022-10-11T02:45:47.556Z,97954.55
2022-10-11T02:48:16.011Z,97958.54
2022-10-11T02:50:44.186Z,97956.88
2022-10-11T02:53:12.362Z,97954.80
2022-10-11T02:55:40.637Z,97955.05
2022-10-11T02:58:08.712Z,97954.61
2022-10-11T03:00:36.720Z,97953.71
2022-10-11T03:03:04.647Z,97950.56
2022-10-11T03:05:37.263Z,97949.83
2022-10-11T03:08:05.399Z,97951.67
2022-10-11T03:10:34.904Z,97950.58
2022-10-11T03:13:02.846Z,97952.36
2022-10-11T03:15:31.047Z,97952.72
2022-10-11T03:17:59.054Z,97958.10
2022-10-11T03:20:26.944Z,97957.91
2022-10-11T03:22:54.854Z,97961.13
2022-10-11T03:25:22.927Z,97959.65
2022-10-11T03:27:50.897Z,97957.95
2022-10-11T03:30:20.300Z,97958.48
2022-10-11T03:32:48.165Z,97959.23
2022-10-11T03:35:16.243Z,97956.19
2022-10-11T03:37:44.977Z,97953.77
2022-10-11T03:40:14.164Z,97953.61
2022-10-11T03:42:42.194Z,97951.02
2022-10-11T03:45:10.947Z,97952.66
2022-10-11T03:47:40.389Z,97951.05
2022-10-11T03:50:09.978Z,97955.36
2022-10-11T03:52:37.863Z,97955.55
2022-10-11T03:55:07.378Z,97956.96
2022-10-11T03:57:35.336Z,97959.09
2022-10-11T04:00:05.387Z,97956.23
2022-10-11T04:02:38.288Z,97957.38
2022-10-11T04:05:07.567Z,97957.42
2022-10-11T04:07:35.510Z,97957.21
2022-10-11T04:10:03.724Z,97956.72
2022-10-11T04:12:31.801Z,97957.42
2022-10-11T04:14:59.829Z,97962.08
2022-10-11T04:17:27.799Z,97959.33
2022-10-11T04:19:55.766Z,97958.40
2022-10-11T04:22:23.942Z,97959.15
2022-10-11T04:24:52.319Z,97959.80
2022-10-11T04:27:20.242Z,97964.48
2022-10-11T04:29:48.155Z,97963.27
2022-10-11T04:32:16.041Z,97962.19
2022-10-11T04:34:44.094Z,97961.90
2022-10-11T04:37:12.177Z,97960.48
2022-10-11T04:39:40.068Z,97957.73
2022-10-11T04:42:08.013Z,97957.88
2022-10-11T04:44:36.189Z,97961.38
2022-10-11T04:47:04.796Z,97960.94
2022-10-11T04:49:32.939Z,97964.36
2022-10-11T04:52:00.928Z,97962.96
2022-10-11T04:54:29.087Z,97964.69
2022-10-11T04:56:57.168Z,97963.60
2022-10-11T04:59:25.145Z,97964.30
2022-10-11T05:01:53.575Z,97967.26
2022-10-11T05:04:21.681Z,97968.42
2022-10-11T05:06:49.756Z,97967.91
2022-10-11T05:09:17.932Z,97970.70
2022-10-11T05:11:45.893Z,97976.45
2022-10-11T05:14:14.274Z,97980.11
2022-10-11T05:16:42.343Z,97984.12
2022-10-11T05:19:10.621Z,97988.95
2022-10-11T05:21:38.508Z,97990.64
2022-10-11T05:24:06.942Z,97990.48
2022-10-11T05:26:34.900Z,97987.92
2022-10-11T05:29:03.320Z,97988.39
2022-10-11T05:31:31.316Z,97987.64
2022-10-11T05:34:00.100Z,97986.48
2022-10-11T05:36:28.249Z,97984.71
2022-10-11T05:38:56.422Z,97982.53
2022-10-11T05:41:24.700Z,97982.89
2022-10-11T05:43:52.671Z,97983.59
2022-10-11T05:46:20.744Z,97983.61
2022-10-11T05:48:48.813Z,97988.17
2022-10-11T05:51:16.742Z,97993.96
2022-10-11T05:53:44.751Z,97999.01
2022-10-11T05:56:21.594Z,98002.95
2022-10-11T05:58:51.044Z,98000.52
2022-10-11T06:01:20.175Z,98002.54
2022-10-11T06:03:48.315Z,98008.64
2022-10-11T06:06:17.205Z,98007.30
2022-10-11T06:08:45.481Z,98012.45
2022-10-11T06:11:25.399Z,98017.80
2022-10-11T06:14:00.777Z,98019.33
2022-10-11T06:16:28.849Z,98016.55
2022-10-11T06:18:57.706Z,98017.92
2022-10-11T06:21:26.014Z,98013.30
2022-10-11T06:23:59.841Z,98015.30
2022-10-11T06:26:30.007Z,98020.08
2022-10-11T06:28:58.893Z,98019.57
2022-10-11T06:31:27.415Z,98019.30
2022-10-11T06:33:55.342Z,98018.83
2022-10-11T06:36:23.354Z,98020.27
2022-10-11T06:38:53.069Z,98022.34
2022-10-11T06:41:27.874Z,98026.88
2022-10-11T06:43:56.584Z,98025.90
2022-10-11T06:46:27.370Z,98029.71
2022-10-11T06:48:56.671Z,98035.14
2022-10-11T06:51:25.868Z,98034.83
2022-10-11T06:53:56.903Z,98035.24
2022-10-11T06:56:26.729Z,98034.11
2022-10-11T06:58:56.860Z,98040.55
2022-10-11T07:01:26.065Z,98047.84
2022-10-11T07:03:55.367Z,98051.31
2022-10-11T07:06:26.251Z,98054.80
2022-10-11T07:08:54.966Z,98055.56
2022-10-11T07:11:26.622Z,98056.85
2022-10-11T07:14:00.760Z,98057.81
2022-10-11T07:16:29.011Z,98055.16
2022-10-11T07:19:00.899Z,98055.07
2022-10-11T07:21:31.863Z,98050.11
2022-10-11T07:24:00.855Z,98047.30
2022-10-11T07:26:36.644Z,98054.23
2022-10-11T07:29:10.857Z,98052.09
2022-10-11T07:31:41.399Z,98054.71
2022-10-11T07:34:10.391Z,98051.30
2022-10-11T07:36:38.521Z,98053.58
2022-10-11T07:39:07.989Z,98053.84
2022-10-11T07:41:38.174Z,98055.73
2022-10-11T07:44:08.732Z,98061.37
2022-10-11T07:46:36.644Z,98060.74
2022-10-11T07:49:05.190Z,98056.90
2022-10-11T07:51:33.303Z,98053.94
2022-10-11T07:54:07.031Z,98057.27
2022-10-11T07:56:37.137Z,98063.86
2022-10-11T07:59:06.387Z,98060.19
2022-10-11T08:01:34.366Z,98062.83
2022-10-11T08:04:02.292Z,98059.98
2022-10-11T08:06:32.789Z,98060.11
2022-10-11T08:09:01.888Z,98064.45
2022-10-11T08:11:36.020Z,98061.55
2022-10-11T08:14:08.936Z,98059.39
2022-10-11T08:16:38.883Z,98055.55
2022-10-11T08:19:07.466Z,98059.79
2022-10-11T08:21:36.302Z,98062.73
2022-10-11T08:24:05.772Z,98064.98
2022-10-11T08:26:34.095Z,98061.02
2022-10-11T08:29:05.501Z,98058.80
2022-10-11T08:31:34.787Z,98058.30
2022-10-11T08:34:02.870Z,98055.98
2022-10-11T08:36:31.796Z,98050.13
2022-10-11T08:39:00.901Z,98048.65
2022-10-11T08:41:49.921Z,98048.71
2022-10-11T08:44:25.257Z,98045.38
2022-10-11T08:47:02.755Z,98045.91
2022-10-11T08:49:33.482Z,98047.36
2022-10-11T08:52:15.712Z,98046.69
2022-10-11T08:54:47.137Z,98046.03
2022-10-11T08:57:22.827Z,98044.33
2022-10-11T08:59:58.229Z,98043.71
2022-10-11T09:03:06.451Z,98043.47
2022-10-11T09:05:51.272Z,98039.75
2022-10-11T09:09:04.348Z,98040.07
2022-10-11T09:12:13.510Z,98039.83
2022-10-11T09:15:08.998Z,98038.15
2022-10-11T09:17:50.989Z,98039.85
2022-10-11T09:20:41.925Z,98038.77
2022-10-11T09:23:34.137Z,98036.45
2022-10-11T09:26:14.702Z,98035.16
2022-10-11T09:29:01.152Z,98035.92
2022-10-11T09:31:30.407Z,98031.85
2022-10-11T09:34:10.485Z,98032.64
2022-10-11T09:37:15.825Z,98034.54
2022-10-11T09:39:57.508Z,98039.18
2022-10-11T09:42:25.868Z,98038.97
2022-10-11T09:44:55.480Z,98034.11
2022-10-11T09:47:27.143Z,98032.08
2022-10-11T09:50:01.595Z,98030.28
2022-10-11T09:52:30.137Z,98032.20
2022-10-11T09:55:00.712Z,98034.65
2022-10-11T09:57:32.649Z,98033.10
2022-10-11T10:00:19.819Z,98030.96
2022-10-11T10:02:49.772Z,98032.80
2022-10-11T10:05:20.421Z,98031.13
2022-10-11T10:08:20.525Z,98030.60
2022-10-11T10:11:04.670Z,98026.84
2022-10-11T10:13:52.264Z,98022.52
2022-10-11T10:16:21.811Z,98024.74
2022-10-11T10:18:58.533Z,98026.09
2022-10-11T10:21:37.355Z,98025.91
2022-10-11T10:24:09.762Z,98026.90
2022-10-11T10:26:37.957Z,98023.05
2022-10-11T10:29:08.717Z,98020.05
2022-10-11T10:34:58.304Z,98014.98
2022-10-11T10:37:53.867Z,98012.70
2022-10-11T10:40:29.123Z,98009.23
2022-10-11T10:42:58.035Z,98009.61
2022-10-11T10:45:41.260Z,98005.34
2022-10-11T10:48:53.803Z,98003.36
2022-10-11T10:51:32.935Z,97994.73
2022-10-11T10:54:10.240Z,97994.04
2022-10-11T10:56:46.679Z,97994.73
2022-10-11T10:59:20.653Z,97987.55
2022-10-11T11:02:40.760Z,97985.19
2022-10-11T11:05:30.628Z,97982.15
2022-10-11T11:08:13.370Z,97977.37
2022-10-11T11:10:57.617Z,97977.63
2022-10-11T11:13:55.692Z,97974.24
2022-10-11T11:17:08.312Z,97976.46
2022-10-11T11:19:36.731Z,97972.02
2022-10-11T11:22:22.884Z,97965.02
2022-10-11T11:25:07.208Z,97962.95
2022-10-11T11:27:58.658Z,97962.80
2022-10-11T11:30:41.260Z,97958.42
2022-10-11T11:33:12.149Z,97958.60
2022-10-11T11:35:48.780Z,97953.61
2022-10-11T11:38:40.764Z,97950.67
2022-10-11T11:41:17.798Z,97945.96
2022-10-11T11:44:03.736Z,97944.77
2022-10-11T11:46:41.944Z,97943.50
2022-10-11T11:49:21.639Z,97937.02
2022-10-11T11:51:50.841Z,97935.69
2022-10-11T11:54:44.105Z,97930.48
2022-10-11T11:57:30.553Z,97928.33
2022-10-11T12:00:19.673Z,97925.06
2022-10-11T12:03:00.019Z,97920.22
2022-10-11T12:05:32.215Z,97919.67
2022-10-11T12:08:20.496Z,97918.70
2022-10-11T12:10:51.383Z,97917.02
2022-10-11T12:13:34.665Z,97913.25
2022-10-11T12:16:11.589Z,97909.64
2022-10-11T12:18:57.790Z,97913.86
2022-10-11T12:21:29.854Z,97911.19
2022-10-11T12:24:00.790Z,97910.69
2022-10-11T12:26:28.664Z,97904.78
2022-10-11T12:29:05.802Z,97902.99
2022-10-11T12:31:36.955Z,97900.69
2022-10-11T12:34:07.985Z,97896.42
2022-10-11T12:36:44.556Z,97896.89
2022-10-11T12:39:18.747Z,97894.70
2022-10-11T12:41:47.871Z,97896.29
2022-10-11T12:44:18.908Z,97894.61
2022-10-11T12:46:57.841Z,97894.47
2022-10-11T12:49:56.217Z,97892.68
2022-10-11T12:52:36.971Z,97890.02
2022-10-11T12:55:10.919Z,97890.69
2022-10-11T12:58:00.929Z,97890.02
2022-10-11T13:00:32.594Z,97887.48
2022-10-11T13:03:28.441Z,97880.29
2022-10-11T13:06:01.992Z,97878.34
2022-10-11T13:08:34.702Z,97873.90
2022-10-11T13:11:08.860Z,97877.04
2022-10-11T13:13:44.331Z,97873.45
2022-10-11T13:16:22.052Z,97873.32
2022-10-11T13:18:54.044Z,97869.48
2022-10-11T13:21:36.784Z,97863.31
2022-10-11T13:24:13.076Z,97862.99
2022-10-11T13:26:43.218Z,97865.17
2022-10-11T13:29:31.253Z,97865.41
2022-10-11T13:32:01.021Z,97863.19
2022-10-11T13:34:34.422Z,97863.34
2022-10-11T13:37:04.144Z,97867.06
2022-10-11T13:39:38.004Z,97866.65
2022-10-11T13:42:10.909Z,97865.14
2022-10-11T13:44:39.546Z,97862.30
2022-10-11T13:47:13.184Z,97865.33
2022-10-11T13:49:47.291Z,97863.33
2022-10-11T13:52:18.344Z,97863.73
2022-10-11T13:55:09.239Z,97861.60
2022-10-11T13:57:47.212Z,97860.40
2022-10-11T14:00:15.266Z,97860.04
2022-10-11T14:02:58.362Z,97863.19
2022-10-11T14:05:34.106Z,97864.80
2022-10-11T14:08:06.207Z,97865.66
2022-10-11T14:10:34.600Z,97864.05
2022-10-11T14:13:23.338Z,97868.73
2022-10-11T14:16:10.176Z,97868.08
2022-10-11T14:18:40.739Z,97867.48
2022-10-11T14:21:20.615Z,97867.52
2022-10-11T14:23:53.776Z,97870.30
2022-10-11T14:26:23.873Z,97868.08
2022-10-11T14:29:00.860Z,97872.03
2022-10-11T14:31:31.214Z,97870.39
2022-10-11T14:33:59.714Z,97873.01
2022-10-11T14:36:28.067Z,97874.20
2022-10-11T14:38:56.135Z,97874.95
2022-10-11T14:41:24.284Z,97872.23
2022-10-11T14:43:53.365Z,97870.11
2022-10-11T14:46:24.915Z,97867.77
2022-10-11T14:48:55.953Z,97871.04
2022-10-11T14:51:31.065Z,97870.54
2022-10-11T14:53:58.976Z,97869.55
2022-10-11T14:56:26.989Z,97867.08
2022-10-11T14:58:54.900Z,97866.84
2022-10-11T15:01:22.842Z,97865.98
2022-10-11T15:03:51.087Z,97871.02
2022-10-11T15:06:26.533Z,97871.38
2022-10-11T15:08:55.177Z,97869.97
2022-10-11T15:11:24.472Z,97866.98
2022-10-11T15:13:52.423Z,97868.46
2022-10-11T15:16:21.791Z,97864.69
2022-10-11T15:18:52.999Z,97865.45
2022-10-11T15:21:24.283Z,97871.53
2022-10-11T15:23:53.622Z,97877.23
2022-10-11T15:26:29.540Z,97879.98
2022-10-11T15:28:58.090Z,97885.30
2022-10-11T15:31:26.299Z,97889.30
2022-10-11T15:33:54.237Z,97889.46
2022-10-11T15:36:22.861Z,97897.02
2022-10-11T15:38:51.437Z,97901.95
2022-10-11T15:41:20.233Z,97901.06
2022-10-11T15:43:49.364Z,97901.63
2022-10-11T15:46:20.878Z,97901.61
2022-10-11T15:48:50.501Z,97905.02
2022-10-11T15:51:19.073Z,97902.78
2022-10-11T15:53:47.512Z,97902.81
2022-10-11T15:56:18.748Z,97906.36
2022-10-11T15:58:47.027Z,97911.11
2022-10-11T16:01:19.976Z,97912.20
2022-10-11T16:03:49.574Z,97912.43
2022-10-11T16:06:19.185Z,97915.95
2022-10-11T16:08:48.190Z,97920.16
2022-10-11T16:11:16.196Z,97920.14
2022-10-11T16:13:45.153Z,97927.32
2022-10-11T16:16:13.211Z,97925.86
2022-10-11T16:18:41.304Z,97926.73
2022-10-11T16:21:11.711Z,97931.53
2022-10-11T16:23:39.796Z,97937.42
2022-10-11T16:26:12.049Z,97938.89
2022-10-11T16:28:41.014Z,97940.23
2022-10-11T16:31:16.932Z,97946.31
2022-10-11T16:33:48.193Z,97945.30
2022-10-11T16:36:40.839Z,97945.63
2022-10-11T16:39:16.043Z,97945.02
2022-10-11T16:41:44.716Z,97949.27
2022-10-11T16:44:14.906Z,97953.77
2022-10-11T16:46:48.643Z,97953.28
2022-10-11T16:49:19.786Z,97953.92
2022-10-11T16:51:48.165Z,97956.93
2022-10-11T16:54:20.450Z,97957.67
2022-10-11T16:56:50.197Z,97957.98
2022-10-11T16:59:18.728Z,97959.98
2022-10-11T17:01:46.804Z,97964.34
2022-10-11T17:04:15.389Z,97965.60
2022-10-11T17:06:44.175Z,97964.23
2022-10-11T17:09:12.963Z,97968.55
2022-10-11T17:11:41.444Z,97966.89
2022-10-11T17:14:11.795Z,97968.33
2022-10-11T17:16:40.148Z,97970.20
2022-10-11T17:19:14.057Z,97972.95
2022-10-11T17:21:42.244Z,97972.42
2022-10-11T17:24:10.201Z,97974.28
2022-10-11T17:26:38.170Z,97972.42
2022-10-11T17:29:06.137Z,97974.48
2022-10-11T17:31:36.567Z,97972.66
2022-10-11T17:34:04.640Z,97975.89
2022-10-11T17:36:36.302Z,97976.52
2022-10-11T17:39:07.644Z,97982.14
2022-10-11T17:41:36.741Z,97984.91
2022-10-11T17:44:05.006Z,97986.98
2022-10-11T17:46:33.604Z,97991.76
2022-10-11T17:49:06.316Z,97991.95
2022-10-11T17:51:36.440Z,97989.11
2022-10-11T17:54:06.435Z,97981.23
2022-10-11T17:56:37.910Z,97981.02
2022-10-11T17:59:07.953Z,97979.70
2022-10-11T18:01:36.410Z,97979.48
2022-10-11T18:04:06.343Z,97976.58
2022-10-11T18:06:39.485Z,97976.70
2022-10-11T18:09:07.751Z,97975.42
2022-10-11T18:11:36.743Z,97975.30
2022-10-11T18:14:05.644Z,97975.89
2022-10-11T18:16:35.042Z,97977.48
2022-10-11T18:19:05.776Z,97979.08
2022-10-11T18:21:35.034Z,97981.23
2022-10-11T18:24:06.595Z,97982.92
2022-10-11T18:26:34.598Z,97983.98
2022-10-11T18:29:02.668Z,97981.16
2022-10-11T18:31:33.826Z,97975.71
2022-10-11T18:34:03.319Z,97976.29
2022-10-11T18:36:32.517Z,97973.38
2022-10-11T18:39:02.562Z,97974.63
2022-10-11T18:41:32.301Z,97975.87
2022-10-11T18:44:06.305Z,97978.13
2022-10-11T18:46:35.145Z,97977.69
2022-10-11T18:49:03.936Z,97976.15
2022-10-11T18:51:38.050Z,97977.55
2022-10-11T18:54:08.172Z,97979.28
2022-10-11T18:56:37.103Z,97976.96
2022-10-11T18:59:07.180Z,97978.44
2022-10-11T19:01:38.337Z,97971.60
2022-10-11T19:04:09.078Z,97976.66
2022-10-11T19:06:41.058Z,97976.48
2022-10-11T19:09:12.779Z,97977.86
2022-10-11T19:11:41.779Z,97978.34
2022-10-11T19:14:15.330Z,97975.63
2022-10-11T19:16:49.385Z,97979.91
2022-10-11T19:19:19.725Z,97980.59
2022-10-11T19:21:48.881Z,97984.86
2022-10-11T19:24:17.609Z,97984.86
2022-10-11T19:26:46.151Z,97985.52
2022-10-11T19:29:16.619Z,97984.60
2022-10-11T19:31:50.438Z,97988.13
2022-10-11T19:34:19.877Z,97987.48
2022-10-11T19:36:50.778Z,97990.36
2022-10-11T19:39:20.815Z,97987.43
2022-10-11T19:41:50.129Z,97988.15
2022-10-11T19:44:18.350Z,97990.04
2022-10-11T19:46:53.884Z,97994.44
2022-10-11T19:49:26.033Z,97993.95
2022-10-11T19:51:55.638Z,97999.70
2022-10-11T19:54:24.066Z,98000.84
2022-10-11T19:56:52.745Z,98003.63
2022-10-11T19:59:20.824Z,98008.10
2022-10-11T20:01:52.634Z,98013.13
2022-10-11T20:04:50.457Z,98012.04
2022-10-11T20:07:10.555Z,98009.58
2022-10-11T20:09:38.430Z,98012.95
2022-10-11T20:12:07.288Z,98011.20
2022-10-11T20:14:35.613Z,98006.98
2022-10-11T20:17:03.840Z,98008.31
2022-10-11T20:19:31.991Z,98011.37
2022-10-11T20:22:01.019Z,98011.86
2022-10-11T20:24:33.143Z,98010.23
2022-10-11T20:27:04.624Z,98011.83
2022-10-11T20:29:33.007Z,98008.95
2022-10-11T20:32:00.973Z,98009.55
2022-10-11T20:34:29.150Z,98014.03
2022-10-11T20:36:57.319Z,98012.59
2022-10-11T20:39:25.455Z,98009.29
2022-10-11T20:41:53.390Z,98007.94
2022-10-11T20:44:21.540Z,98010.55
2022-10-11T20:46:49.709Z,98010.09
2022-10-11T20:49:20.119Z,98005.61
2022-10-11T20:51:48.835Z,98007.70
2022-10-11T20:54:17.413Z,98006.39
2022-10-11T20:56:45.746Z,98003.85
2022-10-11T20:59:13.629Z,98002.02
2022-10-11T21:01:41.919Z,98000.39
2022-10-11T21:04:18.326Z,98002.88
2022-10-11T21:06:48.416Z,98002.65
2022-10-11T21:09:17.401Z,98003.04
2022-10-11T21:11:46.514Z,98003.69
2022-10-11T21:14:14.786Z,98004.81
2022-10-11T21:16:42.756Z,98007.04
2022-10-11T21:19:14.101Z,98006.33
2022-10-11T21:21:42.880Z,98006.98
2022-10-11T21:24:11.048Z,98005.94
2022-10-11T21:26:39.012Z,98007.15
2022-10-11T21:29:08.935Z,98009.56
2022-10-11T21:31:37.019Z,98006.20
2022-10-11T21:34:06.761Z,98006.10
2022-10-11T21:36:35.533Z,98005.66
2022-10-11T21:39:03.909Z,98002.77
2022-10-11T21:41:31.970Z,98002.60
2022-10-11T21:44:00.065Z,98003.16
2022-10-11T21:47:04.779Z,98007.67
2022-10-11T21:49:19.857Z,98010.37
2022-10-11T21:51:48.937Z,98008.64
2022-10-11T21:54:17.233Z,98009.61
2022-10-11T21:56:45.145Z,98009.39
2022-10-11T21:59:13.089Z,98010.99
2022-10-11T22:01:42.042Z,98009.80
2022-10-11T22:04:11.109Z,98008.48
2022-10-11T22:06:40.132Z,98005.97
2022-10-11T22:09:09.055Z,98005.91
2022-10-11T22:11:37.404Z,98008.14
2022-10-11T22:14:05.333Z,98005.92
2022-10-11T22:16:34.980Z,98008.39
2022-10-11T22:19:03.256Z,98011.42
2022-10-11T22:21:31.536Z,98012.20
2022-10-11T22:23:59.421Z,98011.45
2022-10-11T22:26:31.049Z,98012.55
2022-10-11T22:29:00.422Z,98009.29
2022-10-11T22:31:30.383Z,98010.68
2022-10-11T22:34:00.600Z,98007.93
2022-10-11T22:36:33.907Z,98011.23
2022-10-11T22:39:07.879Z,98011.08
2022-10-11T22:41:36.487Z,98011.72
2022-10-11T22:44:04.986Z,98010.94
2022-10-11T22:46:33.196Z,98010.98
2022-10-11T22:49:01.321Z,98010.62
2022-10-11T22:51:29.294Z,98014.88
2022-10-11T22:53:57.360Z,98015.60
2022-10-11T22:56:25.438Z,98015.79
2022-10-11T22:58:53.323Z,98014.90
2022-10-11T23:01:21.574Z,98015.80
2022-10-11T23:03:50.849Z,98012.59
2022-10-11T23:06:19.003Z,98013.56
2022-10-11T23:08:47.018Z,98010.08
2022-10-11T23:11:15.198Z,98011.80
2022-10-11T23:13:43.269Z,98016.30
2022-10-11T23:16:13.186Z,98017.16
2022-10-11T23:18:41.866Z,98015.86
2022-10-11T23:21:10.346Z,98015.73
2022-10-11T23:23:40.016Z,98013.88
2022-10-11T23:26:11.917Z,98017.64
2022-10-11T23:28:40.457Z,98014.75
2022-10-11T23:31:10.780Z,98016.45
2022-10-11T23:33:39.309Z,98018.11
2022-10-11T23:36:17.576Z,98022.01
2022-10-11T23:38:49.993Z,98020.00
2022-10-11T23:41:18.270Z,98018.70
2022-10-11T23:43:46.343Z,98019.40
2022-10-11T23:46:15.154Z,98021.88
2022-10-11T23:48:43.203Z,98018.56
2022-10-11T23:51:11.685Z,98018.95
2022-10-11T23:53:39.655Z,98017.10
2022-10-11T23:56:08.648Z,98016.16
2022-10-11T23:58:36.718Z,98015.45
